sensor_id;sensor_type;location;lat;lon;timestamp;P1;durP1;ratioP1;P2;durP2;ratioP2
69527;SDS011;57136;51.986;4.468;2022-08-25T00:00:14;36.38;;;31.58;;
69527;SDS011;57136;51.986;4.468;2022-08-25T00:02:40;39.10;;;30.65;;
69527;SDS011;57136;51.986;4.468;2022-08-25T00:05:05;35.95;;;30.55;;
69527;SDS011;57136;51.986;4.468;2022-08-25T00:07:31;35.88;;;31.67;;
69527;SDS011;57136;51.986;4.468;2022-08-25T00:09:57;36.08;;;30.25;;
69527;SDS011;57136;51.986;4.468;2022-08-25T00:12:22;35.30;;;31.08;;
69527;SDS011;57136;51.986;4.468;2022-08-25T00:14:47;34.60;;;29.60;;
69527;SDS011;57136;51.986;4.468;2022-08-25T00:17:13;34.28;;;29.73;;
69527;SDS011;57136;51.986;4.468;2022-08-25T00:19:38;35.17;;;29.63;;
69527;SDS011;57136;51.986;4.468;2022-08-25T00:22:04;35.25;;;31.15;;
69527;SDS011;57136;51.986;4.468;2022-08-25T00:24:30;36.55;;;30.95;;
69527;SDS011;57136;51.986;4.468;2022-08-25T00:26:56;37.47;;;32.75;;
69527;SDS011;57136;51.986;4.468;2022-08-25T00:29:23;38.92;;;31.65;;
69527;SDS011;57136;51.986;4.468;2022-08-25T00:31:52;34.53;;;29.98;;
69527;SDS011;57136;51.986;4.468;2022-08-25T00:34:20;37.78;;;31.77;;
69527;SDS011;57136;51.986;4.468;2022-08-25T00:36:48;37.63;;;31.48;;
69527;SDS011;57136;51.986;4.468;2022-08-25T00:39:16;37.10;;;31.33;;
69527;SDS011;57136;51.986;4.468;2022-08-25T00:41:42;39.75;;;33.53;;
69527;SDS011;57136;51.986;4.468;2022-08-25T00:44:09;36.85;;;32.40;;
69527;SDS011;57136;51.986;4.468;2022-08-25T00:46:38;39.75;;;33.05;;
69527;SDS011;57136;51.986;4.468;2022-08-25T00:49:12;38.45;;;32.83;;
69527;SDS011;57136;51.986;4.468;2022-08-25T00:51:50;35.28;;;31.45;;
69527;SDS011;57136;51.986;4.468;2022-08-25T00:54:23;38.88;;;33.75;;
69527;SDS011;57136;51.986;4.468;2022-08-25T00:56:51;39.42;;;33.78;;
69527;SDS011;57136;51.986;4.468;2022-08-25T00:59:19;39.45;;;33.30;;
69527;SDS011;57136;51.986;4.468;2022-08-25T01:01:46;42.08;;;36.88;;
69527;SDS011;57136;51.986;4.468;2022-08-25T01:04:12;43.05;;;35.85;;
69527;SDS011;57136;51.986;4.468;2022-08-25T01:06:38;40.60;;;34.45;;
69527;SDS011;57136;51.986;4.468;2022-08-25T01:09:08;39.88;;;32.88;;
69527;SDS011;57136;51.986;4.468;2022-08-25T01:11:34;40.63;;;36.28;;
69527;SDS011;57136;51.986;4.468;2022-08-25T01:14:00;42.55;;;36.28;;
69527;SDS011;57136;51.986;4.468;2022-08-25T01:16:30;40.72;;;36.33;;
69527;SDS011;57136;51.986;4.468;2022-08-25T01:18:57;38.75;;;34.30;;
69527;SDS011;57136;51.986;4.468;2022-08-25T01:21:25;40.70;;;34.90;;
69527;SDS011;57136;51.986;4.468;2022-08-25T01:23:52;42.35;;;36.45;;
69527;SDS011;57136;51.986;4.468;2022-08-25T01:26:23;39.63;;;34.50;;
69527;SDS011;57136;51.986;4.468;2022-08-25T01:28:51;41.08;;;34.72;;
69527;SDS011;57136;51.986;4.468;2022-08-25T01:34:02;40.90;;;34.47;;
69527;SDS011;57136;51.986;4.468;2022-08-25T01:36:30;43.13;;;35.25;;
69527;SDS011;57136;51.986;4.468;2022-08-25T01:38:55;43.05;;;35.90;;
69527;SDS011;57136;51.986;4.468;2022-08-25T01:41:30;41.10;;;35.80;;
69527;SDS011;57136;51.986;4.468;2022-08-25T01:43:58;42.72;;;36.95;;
69527;SDS011;57136;51.986;4.468;2022-08-25T01:46:25;41.95;;;36.20;;
69527;SDS011;57136;51.986;4.468;2022-08-25T01:48:51;48.65;;;38.28;;
69527;SDS011;57136;51.986;4.468;2022-08-25T01:51:18;42.45;;;35.60;;
69527;SDS011;57136;51.986;4.468;2022-08-25T01:53:50;39.38;;;34.03;;
69527;SDS011;57136;51.986;4.468;2022-08-25T01:56:16;42.05;;;36.97;;
69527;SDS011;57136;51.986;4.468;2022-08-25T01:58:44;40.75;;;33.88;;
69527;SDS011;57136;51.986;4.468;2022-08-25T02:01:15;40.15;;;33.92;;
69527;SDS011;57136;51.986;4.468;2022-08-25T02:03:45;41.53;;;34.63;;
69527;SDS011;57136;51.986;4.468;2022-08-25T02:06:13;42.15;;;35.28;;
69527;SDS011;57136;51.986;4.468;2022-08-25T02:08:41;41.03;;;36.25;;
69527;SDS011;57136;51.986;4.468;2022-08-25T02:11:11;40.72;;;35.90;;
69527;SDS011;57136;51.986;4.468;2022-08-25T02:13:38;41.72;;;34.67;;
69527;SDS011;57136;51.986;4.468;2022-08-25T02:16:04;41.22;;;35.85;;
69527;SDS011;57136;51.986;4.468;2022-08-25T02:18:30;39.05;;;33.22;;
69527;SDS011;57136;51.986;4.468;2022-08-25T02:20:55;42.55;;;35.22;;
69527;SDS011;57136;51.986;4.468;2022-08-25T02:23:20;40.40;;;35.10;;
69527;SDS011;57136;51.986;4.468;2022-08-25T02:25:46;38.58;;;34.22;;
69527;SDS011;57136;51.986;4.468;2022-08-25T02:28:11;42.47;;;35.60;;
69527;SDS011;57136;51.986;4.468;2022-08-25T02:30:37;40.58;;;35.72;;
69527;SDS011;57136;51.986;4.468;2022-08-25T02:33:04;41.25;;;35.65;;
69527;SDS011;57136;51.986;4.468;2022-08-25T02:35:30;39.97;;;34.50;;
69527;SDS011;57136;51.986;4.468;2022-08-25T02:37:56;38.35;;;32.63;;
69527;SDS011;57136;51.986;4.468;2022-08-25T02:40:22;40.22;;;32.88;;
69527;SDS011;57136;51.986;4.468;2022-08-25T02:42:47;37.47;;;33.35;;
69527;SDS011;57136;51.986;4.468;2022-08-25T02:45:14;37.95;;;33.78;;
69527;SDS011;57136;51.986;4.468;2022-08-25T02:47:40;35.22;;;31.23;;
69527;SDS011;57136;51.986;4.468;2022-08-25T02:50:06;35.67;;;31.88;;
69527;SDS011;57136;51.986;4.468;2022-08-25T02:52:32;39.33;;;34.63;;
69527;SDS011;57136;51.986;4.468;2022-08-25T02:54:59;35.65;;;31.52;;
69527;SDS011;57136;51.986;4.468;2022-08-25T02:57:28;37.83;;;33.25;;
69527;SDS011;57136;51.986;4.468;2022-08-25T02:59:54;36.83;;;32.85;;
69527;SDS011;57136;51.986;4.468;2022-08-25T03:02:19;37.83;;;32.55;;
69527;SDS011;57136;51.986;4.468;2022-08-25T03:04:45;36.53;;;32.67;;
69527;SDS011;57136;51.986;4.468;2022-08-25T03:07:11;35.55;;;31.63;;
69527;SDS011;57136;51.986;4.468;2022-08-25T03:09:36;41.25;;;32.72;;
69527;SDS011;57136;51.986;4.468;2022-08-25T03:12:02;35.25;;;30.67;;
69527;SDS011;57136;51.986;4.468;2022-08-25T03:14:27;37.30;;;32.22;;
69527;SDS011;57136;51.986;4.468;2022-08-25T03:16:54;36.38;;;32.20;;
69527;SDS011;57136;51.986;4.468;2022-08-25T03:19:19;34.80;;;30.70;;
69527;SDS011;57136;51.986;4.468;2022-08-25T03:21:45;34.42;;;30.75;;
69527;SDS011;57136;51.986;4.468;2022-08-25T03:24:10;33.30;;;29.73;;
69527;SDS011;57136;51.986;4.468;2022-08-25T03:26:35;34.67;;;30.48;;
69527;SDS011;57136;51.986;4.468;2022-08-25T03:29:23;31.42;;;27.88;;
69527;SDS011;57136;51.986;4.468;2022-08-25T03:31:54;30.35;;;27.17;;
69527;SDS011;57136;51.986;4.468;2022-08-25T03:34:24;29.10;;;25.58;;
69527;SDS011;57136;51.986;4.468;2022-08-25T03:36:52;29.17;;;26.13;;
69527;SDS011;57136;51.986;4.468;2022-08-25T03:39:19;28.25;;;24.40;;
69527;SDS011;57136;51.986;4.468;2022-08-25T03:41:46;26.63;;;23.42;;
69527;SDS011;57136;51.986;4.468;2022-08-25T03:44:11;24.13;;;21.63;;
69527;SDS011;57136;51.986;4.468;2022-08-25T03:46:39;22.23;;;19.52;;
69527;SDS011;57136;51.986;4.468;2022-08-25T03:49:08;22.48;;;19.95;;
69527;SDS011;57136;51.986;4.468;2022-08-25T03:51:38;21.65;;;19.45;;
69527;SDS011;57136;51.986;4.468;2022-08-25T03:54:09;21.10;;;19.02;;
69527;SDS011;57136;51.986;4.468;2022-08-25T03:56:35;20.45;;;18.27;;
69527;SDS011;57136;51.986;4.468;2022-08-25T03:59:02;19.40;;;17.38;;
69527;SDS011;57136;51.986;4.468;2022-08-25T04:01:27;19.48;;;17.67;;
69527;SDS011;57136;51.986;4.468;2022-08-25T04:03:53;19.75;;;17.75;;
69527;SDS011;57136;51.986;4.468;2022-08-25T04:06:19;20.20;;;18.23;;
69527;SDS011;57136;51.986;4.468;2022-08-25T04:08:45;20.52;;;18.42;;
69527;SDS011;57136;51.986;4.468;2022-08-25T04:11:12;17.33;;;15.50;;
69527;SDS011;57136;51.986;4.468;2022-08-25T04:13:42;20.25;;;18.15;;
69527;SDS011;57136;51.986;4.468;2022-08-25T04:16:15;18.55;;;16.73;;
69527;SDS011;57136;51.986;4.468;2022-08-25T04:18:45;19.35;;;17.38;;
69527;SDS011;57136;51.986;4.468;2022-08-25T04:21:12;18.40;;;16.48;;
69527;SDS011;57136;51.986;4.468;2022-08-25T04:23:39;19.35;;;16.35;;
69527;SDS011;57136;51.986;4.468;2022-08-25T04:26:13;18.35;;;16.58;;
69527;SDS011;57136;51.986;4.468;2022-08-25T04:28:40;23.38;;;18.08;;
69527;SDS011;57136;51.986;4.468;2022-08-25T04:31:06;19.13;;;17.33;;
69527;SDS011;57136;51.986;4.468;2022-08-25T04:33:34;18.42;;;16.63;;
69527;SDS011;57136;51.986;4.468;2022-08-25T04:36:00;19.63;;;17.63;;
69527;SDS011;57136;51.986;4.468;2022-08-25T04:38:25;25.70;;;18.42;;
69527;SDS011;57136;51.986;4.468;2022-08-25T04:41:10;21.00;;;17.77;;
69527;SDS011;57136;51.986;4.468;2022-08-25T04:43:37;20.63;;;18.67;;
69527;SDS011;57136;51.986;4.468;2022-08-25T04:46:04;19.55;;;17.48;;
69527;SDS011;57136;51.986;4.468;2022-08-25T04:48:31;20.73;;;17.77;;
69527;SDS011;57136;51.986;4.468;2022-08-25T04:50:56;20.98;;;18.85;;
69527;SDS011;57136;51.986;4.468;2022-08-25T04:53:22;20.52;;;18.45;;
69527;SDS011;57136;51.986;4.468;2022-08-25T04:55:48;20.48;;;18.27;;
69527;SDS011;57136;51.986;4.468;2022-08-25T04:58:14;19.77;;;17.70;;
69527;SDS011;57136;51.986;4.468;2022-08-25T05:00:40;22.55;;;17.95;;
69527;SDS011;57136;51.986;4.468;2022-08-25T05:03:07;19.70;;;17.73;;
69527;SDS011;57136;51.986;4.468;2022-08-25T05:05:37;19.13;;;17.13;;
69527;SDS011;57136;51.986;4.468;2022-08-25T05:08:03;19.23;;;17.17;;
69527;SDS011;57136;51.986;4.468;2022-08-25T05:10:30;19.63;;;17.52;;
69527;SDS011;57136;51.986;4.468;2022-08-25T05:12:55;19.83;;;15.50;;
69527;SDS011;57136;51.986;4.468;2022-08-25T05:15:20;17.65;;;15.95;;
69527;SDS011;57136;51.986;4.468;2022-08-25T05:18:04;16.67;;;15.07;;
69527;SDS011;57136;51.986;4.468;2022-08-25T05:20:30;17.05;;;15.30;;
69527;SDS011;57136;51.986;4.468;2022-08-25T05:22:56;18.75;;;16.73;;
69527;SDS011;57136;51.986;4.468;2022-08-25T05:25:22;18.10;;;16.42;;
69527;SDS011;57136;51.986;4.468;2022-08-25T05:27:48;19.58;;;17.60;;
69527;SDS011;57136;51.986;4.468;2022-08-25T05:30:13;17.88;;;16.02;;
69527;SDS011;57136;51.986;4.468;2022-08-25T05:32:39;17.30;;;15.50;;
69527;SDS011;57136;51.986;4.468;2022-08-25T05:35:04;18.83;;;16.50;;
69527;SDS011;57136;51.986;4.468;2022-08-25T05:37:30;17.35;;;15.55;;
69527;SDS011;57136;51.986;4.468;2022-08-25T05:39:55;17.13;;;15.40;;
69527;SDS011;57136;51.986;4.468;2022-08-25T05:42:21;17.13;;;15.38;;
69527;SDS011;57136;51.986;4.468;2022-08-25T05:44:47;18.58;;;16.73;;
69527;SDS011;57136;51.986;4.468;2022-08-25T05:47:12;18.38;;;16.45;;
69527;SDS011;57136;51.986;4.468;2022-08-25T05:49:38;18.20;;;16.33;;
69527;SDS011;57136;51.986;4.468;2022-08-25T05:52:03;17.45;;;15.65;;
69527;SDS011;57136;51.986;4.468;2022-08-25T05:54:28;17.65;;;15.93;;
69527;SDS011;57136;51.986;4.468;2022-08-25T05:56:55;17.20;;;15.38;;
69527;SDS011;57136;51.986;4.468;2022-08-25T05:59:21;16.40;;;14.80;;
69527;SDS011;57136;51.986;4.468;2022-08-25T06:01:47;16.63;;;14.93;;
69527;SDS011;57136;51.986;4.468;2022-08-25T06:04:31;18.27;;;16.42;;
69527;SDS011;57136;51.986;4.468;2022-08-25T06:06:56;19.10;;;16.17;;
69527;SDS011;57136;51.986;4.468;2022-08-25T06:09:22;18.23;;;15.15;;
69527;SDS011;57136;51.986;4.468;2022-08-25T06:11:48;17.85;;;15.20;;
69527;SDS011;57136;51.986;4.468;2022-08-25T06:14:14;16.23;;;14.50;;
69527;SDS011;57136;51.986;4.468;2022-08-25T06:16:40;17.85;;;15.50;;
69527;SDS011;57136;51.986;4.468;2022-08-25T06:19:06;18.77;;;15.23;;
69527;SDS011;57136;51.986;4.468;2022-08-25T06:21:33;16.90;;;15.20;;
69527;SDS011;57136;51.986;4.468;2022-08-25T06:23:58;16.85;;;15.13;;
69527;SDS011;57136;51.986;4.468;2022-08-25T06:26:24;17.58;;;14.23;;
69527;SDS011;57136;51.986;4.468;2022-08-25T06:28:50;18.05;;;15.00;;
69527;SDS011;57136;51.986;4.468;2022-08-25T06:31:17;20.15;;;15.32;;
69527;SDS011;57136;51.986;4.468;2022-08-25T06:33:42;21.13;;;14.90;;
69527;SDS011;57136;51.986;4.468;2022-08-25T06:36:08;16.48;;;14.60;;
69527;SDS011;57136;51.986;4.468;2022-08-25T06:38:34;15.20;;;12.63;;
69527;SDS011;57136;51.986;4.468;2022-08-25T06:41:03;15.90;;;13.73;;
69527;SDS011;57136;51.986;4.468;2022-08-25T06:43:29;14.98;;;12.55;;
69527;SDS011;57136;51.986;4.468;2022-08-25T06:45:57;13.48;;;12.10;;
69527;SDS011;57136;51.986;4.468;2022-08-25T06:48:22;14.00;;;11.63;;
69527;SDS011;57136;51.986;4.468;2022-08-25T06:50:48;15.32;;;12.73;;
69527;SDS011;57136;51.986;4.468;2022-08-25T06:53:13;15.30;;;12.48;;
69527;SDS011;57136;51.986;4.468;2022-08-25T06:55:38;14.55;;;12.68;;
69527;SDS011;57136;51.986;4.468;2022-08-25T06:58:04;14.45;;;12.65;;
69527;SDS011;57136;51.986;4.468;2022-08-25T07:00:29;15.63;;;12.27;;
69527;SDS011;57136;51.986;4.468;2022-08-25T07:02:56;16.35;;;13.50;;
69527;SDS011;57136;51.986;4.468;2022-08-25T07:05:22;18.25;;;11.93;;
69527;SDS011;57136;51.986;4.468;2022-08-25T07:07:47;13.25;;;11.50;;
69527;SDS011;57136;51.986;4.468;2022-08-25T07:10:14;16.45;;;11.43;;
69527;SDS011;57136;51.986;4.468;2022-08-25T07:12:40;12.10;;;10.90;;
69527;SDS011;57136;51.986;4.468;2022-08-25T07:15:05;11.75;;;10.55;;
69527;SDS011;57136;51.986;4.468;2022-08-25T07:17:31;11.73;;;10.48;;
69527;SDS011;57136;51.986;4.468;2022-08-25T07:19:56;14.32;;;10.23;;
69527;SDS011;57136;51.986;4.468;2022-08-25T07:22:22;12.68;;;10.23;;
69527;SDS011;57136;51.986;4.468;2022-08-25T07:24:47;11.55;;;9.27;;
69527;SDS011;57136;51.986;4.468;2022-08-25T07:27:12;12.02;;;8.07;;
69527;SDS011;57136;51.986;4.468;2022-08-25T07:29:38;11.48;;;8.55;;
69527;SDS011;57136;51.986;4.468;2022-08-25T07:32:04;10.75;;;8.60;;
69527;SDS011;57136;51.986;4.468;2022-08-25T07:34:30;9.68;;;7.68;;
69527;SDS011;57136;51.986;4.468;2022-08-25T07:37:15;9.90;;;8.80;;
69527;SDS011;57136;51.986;4.468;2022-08-25T07:39:40;9.50;;;7.72;;
69527;SDS011;57136;51.986;4.468;2022-08-25T07:42:06;12.00;;;7.30;;
69527;SDS011;57136;51.986;4.468;2022-08-25T07:44:32;11.30;;;6.68;;
69527;SDS011;57136;51.986;4.468;2022-08-25T07:46:58;7.93;;;6.97;;
69527;SDS011;57136;51.986;4.468;2022-08-25T07:49:24;10.27;;;7.10;;
69527;SDS011;57136;51.986;4.468;2022-08-25T07:51:51;10.18;;;7.38;;
69527;SDS011;57136;51.986;4.468;2022-08-25T07:54:18;8.73;;;6.80;;
69527;SDS011;57136;51.986;4.468;2022-08-25T07:56:43;7.47;;;5.72;;
69527;SDS011;57136;51.986;4.468;2022-08-25T07:59:09;6.70;;;5.70;;
69527;SDS011;57136;51.986;4.468;2022-08-25T08:01:35;7.65;;;5.90;;
69527;SDS011;57136;51.986;4.468;2022-08-25T08:04:01;6.97;;;6.07;;
69527;SDS011;57136;51.986;4.468;2022-08-25T08:06:26;7.45;;;6.13;;
69527;SDS011;57136;51.986;4.468;2022-08-25T08:08:52;10.30;;;5.82;;
69527;SDS011;57136;51.986;4.468;2022-08-25T08:11:22;9.38;;;6.28;;
69527;SDS011;57136;51.986;4.468;2022-08-25T08:13:54;11.18;;;8.75;;
69527;SDS011;57136;51.986;4.468;2022-08-25T08:16:21;9.70;;;5.93;;
69527;SDS011;57136;51.986;4.468;2022-08-25T08:18:48;7.95;;;5.57;;
69527;SDS011;57136;51.986;4.468;2022-08-25T08:21:21;10.85;;;5.53;;
69527;SDS011;57136;51.986;4.468;2022-08-25T08:23:53;7.70;;;5.13;;
69527;SDS011;57136;51.986;4.468;2022-08-25T08:26:20;8.60;;;4.90;;
69527;SDS011;57136;51.986;4.468;2022-08-25T08:28:47;7.35;;;4.97;;
69527;SDS011;57136;51.986;4.468;2022-08-25T08:31:15;8.35;;;5.18;;
69527;SDS011;57136;51.986;4.468;2022-08-25T08:33:43;8.05;;;4.80;;
69527;SDS011;57136;51.986;4.468;2022-08-25T08:36:10;6.65;;;4.63;;
69527;SDS011;57136;51.986;4.468;2022-08-25T08:38:36;6.53;;;4.72;;
69527;SDS011;57136;51.986;4.468;2022-08-25T08:41:19;7.22;;;4.18;;
69527;SDS011;57136;51.986;4.468;2022-08-25T08:52:46;6.68;;;4.15;;
69527;SDS011;57136;51.986;4.468;2022-08-25T08:55:34;8.07;;;4.47;;
69527;SDS011;57136;51.986;4.468;2022-08-25T08:58:04;5.97;;;4.03;;
69527;SDS011;57136;51.986;4.468;2022-08-25T09:00:36;6.20;;;3.95;;
69527;SDS011;57136;51.986;4.468;2022-08-25T09:03:22;4.88;;;3.70;;
69527;SDS011;57136;51.986;4.468;2022-08-25T09:06:23;6.82;;;4.13;;
69527;SDS011;57136;51.986;4.468;2022-08-25T09:08:56;5.35;;;3.72;;
69527;SDS011;57136;51.986;4.468;2022-08-25T09:11:27;5.40;;;4.07;;
69527;SDS011;57136;51.986;4.468;2022-08-25T09:16:54;8.75;;;4.22;;
69527;SDS011;57136;51.986;4.468;2022-08-25T09:22:17;6.85;;;3.88;;
69527;SDS011;57136;51.986;4.468;2022-08-25T09:27:35;10.20;;;3.90;;
69527;SDS011;57136;51.986;4.468;2022-08-25T09:30:05;7.47;;;3.60;;
69527;SDS011;57136;51.986;4.468;2022-08-25T09:32:34;3.97;;;3.30;;
69527;SDS011;57136;51.986;4.468;2022-08-25T09:35:04;7.20;;;3.58;;
69527;SDS011;57136;51.986;4.468;2022-08-25T09:37:31;4.63;;;3.65;;
69527;SDS011;57136;51.986;4.468;2022-08-25T09:39:56;7.22;;;3.38;;
69527;SDS011;57136;51.986;4.468;2022-08-25T09:42:22;6.68;;;3.42;;
69527;SDS011;57136;51.986;4.468;2022-08-25T09:45:12;9.70;;;3.83;;
69527;SDS011;57136;51.986;4.468;2022-08-25T09:47:42;7.53;;;3.85;;
69527;SDS011;57136;51.986;4.468;2022-08-25T09:50:18;6.88;;;3.67;;
69527;SDS011;57136;51.986;4.468;2022-08-25T09:52:43;5.20;;;3.53;;
69527;SDS011;57136;51.986;4.468;2022-08-25T09:55:20;6.22;;;3.63;;
69527;SDS011;57136;51.986;4.468;2022-08-25T09:57:54;5.80;;;3.80;;
69527;SDS011;57136;51.986;4.468;2022-08-25T10:03:03;8.85;;;3.70;;
69527;SDS011;57136;51.986;4.468;2022-08-25T10:05:31;9.80;;;3.25;;
69527;SDS011;57136;51.986;4.468;2022-08-25T10:08:03;5.30;;;3.15;;
69527;SDS011;57136;51.986;4.468;2022-08-25T10:10:45;15.35;;;9.25;;
69527;SDS011;57136;51.986;4.468;2022-08-25T10:13:19;3.58;;;2.92;;
69527;SDS011;57136;51.986;4.468;2022-08-25T10:15:47;7.53;;;3.75;;
69527;SDS011;57136;51.986;4.468;2022-08-25T10:18:28;7.90;;;3.47;;
69527;SDS011;57136;51.986;4.468;2022-08-25T10:21:11;5.40;;;3.30;;
69527;SDS011;57136;51.986;4.468;2022-08-25T10:23:49;5.22;;;3.28;;
69527;SDS011;57136;51.986;4.468;2022-08-25T10:32:04;7.05;;;3.83;;
69527;SDS011;57136;51.986;4.468;2022-08-25T10:40:20;4.07;;;3.20;;
69527;SDS011;57136;51.986;4.468;2022-08-25T10:42:54;5.55;;;3.50;;
69527;SDS011;57136;51.986;4.468;2022-08-25T10:45:21;6.53;;;3.50;;
69527;SDS011;57136;51.986;4.468;2022-08-25T10:51:00;5.43;;;3.90;;
69527;SDS011;57136;51.986;4.468;2022-08-25T10:53:28;5.03;;;3.53;;
69527;SDS011;57136;51.986;4.468;2022-08-25T10:56:07;5.88;;;3.60;;
69527;SDS011;57136;51.986;4.468;2022-08-25T10:58:51;6.35;;;3.42;;
69527;SDS011;57136;51.986;4.468;2022-08-25T11:06:15;4.15;;;3.42;;
69527;SDS011;57136;51.986;4.468;2022-08-25T11:08:46;4.93;;;3.78;;
69527;SDS011;57136;51.986;4.468;2022-08-25T11:11:26;4.05;;;3.50;;
69527;SDS011;57136;51.986;4.468;2022-08-25T11:13:57;4.25;;;3.67;;
69527;SDS011;57136;51.986;4.468;2022-08-25T11:16:41;5.18;;;3.53;;
69527;SDS011;57136;51.986;4.468;2022-08-25T11:19:17;5.20;;;3.58;;
69527;SDS011;57136;51.986;4.468;2022-08-25T11:21:48;5.80;;;3.53;;
69527;SDS011;57136;51.986;4.468;2022-08-25T11:26:59;6.28;;;3.63;;
69527;SDS011;57136;51.986;4.468;2022-08-25T11:29:29;8.52;;;3.63;;
69527;SDS011;57136;51.986;4.468;2022-08-25T11:31:59;5.35;;;3.50;;
69527;SDS011;57136;51.986;4.468;2022-08-25T11:34:26;5.78;;;3.60;;
69527;SDS011;57136;51.986;4.468;2022-08-25T11:36:55;6.13;;;3.15;;
69527;SDS011;57136;51.986;4.468;2022-08-25T11:39:33;4.25;;;3.45;;
69527;SDS011;57136;51.986;4.468;2022-08-25T11:42:33;8.80;;;3.90;;
69527;SDS011;57136;51.986;4.468;2022-08-25T11:48:21;6.07;;;4.00;;
69527;SDS011;57136;51.986;4.468;2022-08-25T11:51:10;7.25;;;3.80;;
69527;SDS011;57136;51.986;4.468;2022-08-25T11:53:51;6.72;;;4.05;;
69527;SDS011;57136;51.986;4.468;2022-08-25T11:56:37;8.80;;;4.10;;
69527;SDS011;57136;51.986;4.468;2022-08-25T11:59:06;5.55;;;3.50;;
69527;SDS011;57136;51.986;4.468;2022-08-25T12:06:37;11.63;;;4.10;;
69527;SDS011;57136;51.986;4.468;2022-08-25T12:14:52;6.72;;;3.70;;
69527;SDS011;57136;51.986;4.468;2022-08-25T12:17:20;5.05;;;3.55;;
69527;SDS011;57136;51.986;4.468;2022-08-25T12:19:50;14.23;;;4.10;;
69527;SDS011;57136;51.986;4.468;2022-08-25T12:24:54;6.30;;;4.03;;
69527;SDS011;57136;51.986;4.468;2022-08-25T12:27:38;6.82;;;3.58;;
69527;SDS011;57136;51.986;4.468;2022-08-25T12:30:18;8.30;;;4.00;;
69527;SDS011;57136;51.986;4.468;2022-08-25T12:35:36;6.95;;;3.95;;
69527;SDS011;57136;51.986;4.468;2022-08-25T12:38:09;4.47;;;3.72;;
69527;SDS011;57136;51.986;4.468;2022-08-25T12:45:45;6.97;;;4.50;;
69527;SDS011;57136;51.986;4.468;2022-08-25T12:50:55;12.15;;;4.38;;
69527;SDS011;57136;51.986;4.468;2022-08-25T12:56:24;12.02;;;4.07;;
69527;SDS011;57136;51.986;4.468;2022-08-25T13:04:21;6.00;;;3.92;;
69527;SDS011;57136;51.986;4.468;2022-08-25T13:12:45;8.20;;;4.35;;
69527;SDS011;57136;51.986;4.468;2022-08-25T13:15:11;10.15;;;4.95;;
69527;SDS011;57136;51.986;4.468;2022-08-25T13:17:38;8.85;;;5.32;;
69527;SDS011;57136;51.986;4.468;2022-08-25T13:22:43;7.18;;;5.07;;
69527;SDS011;57136;51.986;4.468;2022-08-25T13:25:15;8.63;;;5.35;;
69527;SDS011;57136;51.986;4.468;2022-08-25T13:27:42;7.85;;;5.43;;
69527;SDS011;57136;51.986;4.468;2022-08-25T13:30:27;11.95;;;6.20;;
69527;SDS011;57136;51.986;4.468;2022-08-25T13:32:58;9.73;;;6.40;;
69527;SDS011;57136;51.986;4.468;2022-08-25T13:35:25;7.32;;;5.43;;
69527;SDS011;57136;51.986;4.468;2022-08-25T13:37:53;6.93;;;5.43;;
69527;SDS011;57136;51.986;4.468;2022-08-25T13:42:53;9.75;;;4.97;;
69527;SDS011;57136;51.986;4.468;2022-08-25T13:45:25;7.95;;;6.03;;
69527;SDS011;57136;51.986;4.468;2022-08-25T13:47:54;6.90;;;6.20;;
69527;SDS011;57136;51.986;4.468;2022-08-25T13:57:58;4.90;;;4.40;;
69527;SDS011;57136;51.986;4.468;2022-08-25T14:00:37;6.97;;;5.07;;
69527;SDS011;57136;51.986;4.468;2022-08-25T14:03:16;11.07;;;5.03;;
69527;SDS011;57136;51.986;4.468;2022-08-25T14:06:08;7.63;;;4.60;;
69527;SDS011;57136;51.986;4.468;2022-08-25T14:08:46;7.50;;;5.50;;
69527;SDS011;57136;51.986;4.468;2022-08-25T14:11:28;12.90;;;5.22;;
69527;SDS011;57136;51.986;4.468;2022-08-25T14:14:03;8.80;;;5.03;;
69527;SDS011;57136;51.986;4.468;2022-08-25T14:16:37;6.57;;;5.97;;
69527;SDS011;57136;51.986;4.468;2022-08-25T14:19:13;9.63;;;6.70;;
69527;SDS011;57136;51.986;4.468;2022-08-25T14:21:41;9.27;;;6.00;;
69527;SDS011;57136;51.986;4.468;2022-08-25T14:24:07;7.72;;;5.78;;
69527;SDS011;57136;51.986;4.468;2022-08-25T14:26:32;7.07;;;5.60;;
69527;SDS011;57136;51.986;4.468;2022-08-25T14:28:58;6.47;;;5.78;;
69527;SDS011;57136;51.986;4.468;2022-08-25T14:33:55;8.57;;;6.55;;
69527;SDS011;57136;51.986;4.468;2022-08-25T14:36:24;9.73;;;6.93;;
69527;SDS011;57136;51.986;4.468;2022-08-25T14:38:50;9.13;;;6.43;;
69527;SDS011;57136;51.986;4.468;2022-08-25T14:41:16;7.45;;;5.55;;
69527;SDS011;57136;51.986;4.468;2022-08-25T14:43:41;11.60;;;7.80;;
69527;SDS011;57136;51.986;4.468;2022-08-25T14:46:16;14.85;;;11.18;;
69527;SDS011;57136;51.986;4.468;2022-08-25T14:48:44;11.93;;;9.63;;
69527;SDS011;57136;51.986;4.468;2022-08-25T14:51:12;14.73;;;10.90;;
69527;SDS011;57136;51.986;4.468;2022-08-25T14:53:39;14.55;;;12.05;;
69527;SDS011;57136;51.986;4.468;2022-08-25T14:56:06;14.50;;;10.65;;
69527;SDS011;57136;51.986;4.468;2022-08-25T14:58:32;15.48;;;12.32;;
69527;SDS011;57136;51.986;4.468;2022-08-25T15:00:57;11.60;;;10.40;;
69527;SDS011;57136;51.986;4.468;2022-08-25T15:03:30;15.75;;;14.18;;
69527;SDS011;57136;51.986;4.468;2022-08-25T15:05:58;15.43;;;13.80;;
69527;SDS011;57136;51.986;4.468;2022-08-25T15:08:24;18.15;;;15.68;;
69527;SDS011;57136;51.986;4.468;2022-08-25T15:11:08;18.00;;;14.95;;
69527;SDS011;57136;51.986;4.468;2022-08-25T15:13:33;20.55;;;18.45;;
69527;SDS011;57136;51.986;4.468;2022-08-25T15:15:59;21.55;;;18.60;;
69527;SDS011;57136;51.986;4.468;2022-08-25T15:18:25;23.48;;;21.25;;
69527;SDS011;57136;51.986;4.468;2022-08-25T15:20:51;24.77;;;21.98;;
69527;SDS011;57136;51.986;4.468;2022-08-25T15:23:17;23.73;;;21.23;;
69527;SDS011;57136;51.986;4.468;2022-08-25T15:25:44;27.70;;;24.75;;
69527;SDS011;57136;51.986;4.468;2022-08-25T15:28:10;28.75;;;25.60;;
69527;SDS011;57136;51.986;4.468;2022-08-25T15:30:36;38.45;;;27.55;;
69527;SDS011;57136;51.986;4.468;2022-08-25T15:33:02;34.25;;;28.83;;
69527;SDS011;57136;51.986;4.468;2022-08-25T15:35:27;32.83;;;27.50;;
69527;SDS011;57136;51.986;4.468;2022-08-25T15:37:53;34.58;;;30.27;;
69527;SDS011;57136;51.986;4.468;2022-08-25T15:40:18;36.88;;;31.42;;
69527;SDS011;57136;51.986;4.468;2022-08-25T15:42:43;31.73;;;28.30;;
69527;SDS011;57136;51.986;4.468;2022-08-25T15:45:09;32.30;;;28.65;;
69527;SDS011;57136;51.986;4.468;2022-08-25T15:47:35;35.95;;;31.25;;
69527;SDS011;57136;51.986;4.468;2022-08-25T15:50:11;39.47;;;31.17;;
69527;SDS011;57136;51.986;4.468;2022-08-25T15:52:39;35.08;;;31.33;;
69527;SDS011;57136;51.986;4.468;2022-08-25T15:55:06;39.35;;;32.38;;
69527;SDS011;57136;51.986;4.468;2022-08-25T15:57:32;33.80;;;27.15;;
69527;SDS011;57136;51.986;4.468;2022-08-25T15:59:58;35.50;;;30.70;;
69527;SDS011;57136;51.986;4.468;2022-08-25T16:02:23;34.78;;;30.42;;
69527;SDS011;57136;51.986;4.468;2022-08-25T16:04:49;38.20;;;30.83;;
69527;SDS011;57136;51.986;4.468;2022-08-25T16:07:15;37.03;;;32.40;;
69527;SDS011;57136;51.986;4.468;2022-08-25T16:09:41;36.97;;;28.30;;
69527;SDS011;57136;51.986;4.468;2022-08-25T16:12:06;33.30;;;29.00;;
69527;SDS011;57136;51.986;4.468;2022-08-25T16:14:31;33.40;;;27.65;;
69527;SDS011;57136;51.986;4.468;2022-08-25T16:16:57;33.75;;;29.23;;
69527;SDS011;57136;51.986;4.468;2022-08-25T16:19:23;32.08;;;27.85;;
69527;SDS011;57136;51.986;4.468;2022-08-25T16:21:49;28.67;;;23.10;;